sensor_id;sensor_type;location;lat;lon;timestamp;pressure;altitude;pressure_sealevel;temperature;humidity
73101;BME280;61288;53.446;-2.266;2023-04-27T00:01:12;101570.91;;;3.94;79.14
73101;BME280;61288;53.446;-2.266;2023-04-27T00:03:38;101571.75;;;3.92;79.96
73101;BME280;61288;53.446;-2.266;2023-04-27T00:06:06;101566.66;;;3.90;80.25
73101;BME280;61288;53.446;-2.266;2023-04-27T00:08:33;101563.22;;;3.89;80.06
73101;BME280;61288;53.446;-2.266;2023-04-27T00:10:59;101558.09;;;3.93;79.51
73101;BME280;61288;53.446;-2.266;2023-04-27T00:13:25;101551.25;;;3.92;78.60
73101;BME280;61288;53.446;-2.266;2023-04-27T00:15:51;101546.97;;;3.94;80.25
73101;BME280;61288;53.446;-2.266;2023-04-27T00:18:17;101557.22;;;3.90;79.76
73101;BME280;61288;53.446;-2.266;2023-04-27T00:20:43;101549.56;;;3.86;81.14
73101;BME280;61288;53.446;-2.266;2023-04-27T00:23:09;101546.13;;;3.85;82.97
73101;BME280;61288;53.446;-2.266;2023-04-27T00:25:34;101547.84;;;3.82;82.48
73101;BME280;61288;53.446;-2.266;2023-04-27T00:28:00;101552.94;;;3.79;81.45
73101;BME280;61288;53.446;-2.266;2023-04-27T00:30:25;101548.69;;;3.79;81.24
73101;BME280;61288;53.446;-2.266;2023-04-27T00:32:53;101552.94;;;3.79;80.85
73101;BME280;61288;53.446;-2.266;2023-04-27T00:35:19;101536.69;;;3.76;81.90
73101;BME280;61288;53.446;-2.266;2023-04-27T00:37:44;101538.41;;;3.78;81.41
73101;BME280;61288;53.446;-2.266;2023-04-27T00:40:10;101532.44;;;3.75;81.93
73101;BME280;61288;53.446;-2.266;2023-04-27T00:42:36;101530.72;;;3.79;81.91
73101;BME280;61288;53.446;-2.266;2023-04-27T00:45:02;101534.16;;;3.84;81.67
73101;BME280;61288;53.446;-2.266;2023-04-27T00:47:29;101529.03;;;3.89;81.78
73101;BME280;61288;53.446;-2.266;2023-04-27T00:49:55;101528.19;;;3.93;81.28
73101;BME280;61288;53.446;-2.266;2023-04-27T00:52:20;101523.06;;;3.98;80.89
73101;BME280;61288;53.446;-2.266;2023-04-27T00:54:49;101520.50;;;4.02;81.62
73101;BME280;61288;53.446;-2.266;2023-04-27T00:57:17;101513.63;;;4.11;81.19
73101;BME280;61288;53.446;-2.266;2023-04-27T00:59:43;101515.38;;;4.15;81.47
73101;BME280;61288;53.446;-2.266;2023-04-27T01:02:09;101508.50;;;4.18;80.85
73101;BME280;61288;53.446;-2.266;2023-04-27T01:04:35;101511.94;;;4.21;81.51
73101;BME280;61288;53.446;-2.266;2023-04-27T01:07:01;101511.94;;;4.22;80.53
73101;BME280;61288;53.446;-2.266;2023-04-27T01:09:27;101499.09;;;4.21;80.57
73101;BME280;61288;53.446;-2.266;2023-04-27T01:11:53;101502.53;;;4.13;81.28
73101;BME280;61288;53.446;-2.266;2023-04-27T01:14:18;101507.66;;;4.09;81.02
73101;BME280;61288;53.446;-2.266;2023-04-27T01:16:44;101503.41;;;4.06;81.61
73101;BME280;61288;53.446;-2.266;2023-04-27T01:19:10;101512.81;;;4.01;82.00
73101;BME280;61288;53.446;-2.266;2023-04-27T01:21:37;101508.50;;;3.94;82.71
73101;BME280;61288;53.446;-2.266;2023-04-27T01:24:05;101511.94;;;3.91;82.24
73101;BME280;61288;53.446;-2.266;2023-04-27T01:26:32;101511.94;;;3.89;82.76
73101;BME280;61288;53.446;-2.266;2023-04-27T01:28:58;101517.06;;;3.82;84.55
73101;BME280;61288;53.446;-2.266;2023-04-27T01:31:25;101518.78;;;3.78;83.86
73101;BME280;61288;53.446;-2.266;2023-04-27T01:33:50;101522.16;;;3.72;84.55
73101;BME280;61288;53.446;-2.266;2023-04-27T01:36:16;101511.91;;;3.69;84.82
73101;BME280;61288;53.446;-2.266;2023-04-27T01:38:41;101520.47;;;3.70;84.86
73101;BME280;61288;53.446;-2.266;2023-04-27T01:41:07;101517.91;;;3.70;84.90
73101;BME280;61288;53.446;-2.266;2023-04-27T01:43:34;101514.47;;;3.72;84.96
73101;BME280;61288;53.446;-2.266;2023-04-27T01:46:11;101510.22;;;3.73;84.23
73101;BME280;61288;53.446;-2.266;2023-04-27T01:48:37;101515.34;;;3.74;85.48
73101;BME280;61288;53.446;-2.266;2023-04-27T01:51:03;101521.34;;;3.78;85.18
73101;BME280;61288;53.446;-2.266;2023-04-27T01:53:29;101522.19;;;3.82;85.13
73101;BME280;61288;53.446;-2.266;2023-04-27T01:55:55;101525.63;;;3.87;85.90
73101;BME280;61288;53.446;-2.266;2023-04-27T01:58:21;101528.19;;;3.93;85.57
73101;BME280;61288;53.446;-2.266;2023-04-27T02:00:46;101518.78;;;4.00;86.43
73101;BME280;61288;53.446;-2.266;2023-04-27T02:03:12;101524.78;;;4.05;86.28
73101;BME280;61288;53.446;-2.266;2023-04-27T02:05:38;101523.06;;;4.13;85.46
73101;BME280;61288;53.446;-2.266;2023-04-27T02:08:03;101518.78;;;4.20;85.71
73101;BME280;61288;53.446;-2.266;2023-04-27T02:10:29;101518.78;;;4.23;86.15
73101;BME280;61288;53.446;-2.266;2023-04-27T02:12:54;101522.19;;;4.27;85.83
73101;BME280;61288;53.446;-2.266;2023-04-27T02:15:21;101515.34;;;4.29;85.35
73101;BME280;61288;53.446;-2.266;2023-04-27T02:17:47;101511.91;;;4.31;84.83
73101;BME280;61288;53.446;-2.266;2023-04-27T02:20:12;101506.78;;;4.31;85.13
73101;BME280;61288;53.446;-2.266;2023-04-27T02:22:43;101504.22;;;4.34;84.99
73101;BME280;61288;53.446;-2.266;2023-04-27T02:25:12;101494.81;;;4.38;84.57
73101;BME280;61288;53.446;-2.266;2023-04-27T02:27:39;101494.78;;;4.43;84.60
73101;BME280;61288;53.446;-2.266;2023-04-27T02:30:07;101494.78;;;4.47;84.01
73101;BME280;61288;53.446;-2.266;2023-04-27T02:32:33;101487.06;;;4.51;83.30
73101;BME280;61288;53.446;-2.266;2023-04-27T02:35:00;101488.78;;;4.53;83.32
73101;BME280;61288;53.446;-2.266;2023-04-27T02:37:26;101493.91;;;4.55;83.48
73101;BME280;61288;53.446;-2.266;2023-04-27T02:39:52;101485.34;;;4.57;83.25
73101;BME280;61288;53.446;-2.266;2023-04-27T02:42:18;101482.75;;;4.63;82.95
73101;BME280;61288;53.446;-2.266;2023-04-27T02:44:44;101486.19;;;4.67;82.67
73101;BME280;61288;53.446;-2.266;2023-04-27T02:47:10;101482.72;;;4.70;82.69
73101;BME280;61288;53.446;-2.266;2023-04-27T02:49:36;101487.00;;;4.71;82.76
73101;BME280;61288;53.446;-2.266;2023-04-27T02:52:05;101483.59;;;4.73;82.68
73101;BME280;61288;53.446;-2.266;2023-04-27T02:54:31;101485.28;;;4.76;82.15
73101;BME280;61288;53.446;-2.266;2023-04-27T02:56:56;101476.72;;;4.79;82.03
73101;BME280;61288;53.446;-2.266;2023-04-27T02:59:22;101482.69;;;4.79;82.79
73101;BME280;61288;53.446;-2.266;2023-04-27T03:01:48;101474.13;;;4.82;82.42
73101;BME280;61288;53.446;-2.266;2023-04-27T03:04:13;101467.28;;;4.85;82.70
73101;BME280;61288;53.446;-2.266;2023-04-27T03:06:40;101463.81;;;4.91;81.57
73101;BME280;61288;53.446;-2.266;2023-04-27T03:09:06;101454.41;;;4.95;81.15
73101;BME280;61288;53.446;-2.266;2023-04-27T03:11:32;101448.38;;;4.99;80.74
73101;BME280;61288;53.446;-2.266;2023-04-27T03:13:58;101449.22;;;5.02;80.78
73101;BME280;61288;53.446;-2.266;2023-04-27T03:16:23;101445.78;;;5.05;80.21
73101;BME280;61288;53.446;-2.266;2023-04-27T03:18:49;101447.47;;;5.06;80.25
73101;BME280;61288;53.446;-2.266;2023-04-27T03:21:15;101444.06;;;5.05;80.53
73101;BME280;61288;53.446;-2.266;2023-04-27T03:23:41;101456.06;;;5.06;80.81
73101;BME280;61288;53.446;-2.266;2023-04-27T03:26:12;101449.19;;;5.04;80.88
73101;BME280;61288;53.446;-2.266;2023-04-27T03:28:39;101453.50;;;5.02;81.93
73101;BME280;61288;53.446;-2.266;2023-04-27T03:31:09;101459.53;;;4.99;81.14
73101;BME280;61288;53.446;-2.266;2023-04-27T03:33:36;101449.25;;;4.99;80.50
73101;BME280;61288;53.446;-2.266;2023-04-27T03:36:03;101456.09;;;4.99;81.00
73101;BME280;61288;53.446;-2.266;2023-04-27T03:38:29;101447.50;;;5.00;81.09
73101;BME280;61288;53.446;-2.266;2023-04-27T03:40:55;101444.09;;;5.01;80.57
73101;BME280;61288;53.446;-2.266;2023-04-27T03:43:21;101439.81;;;5.01;80.44
73101;BME280;61288;53.446;-2.266;2023-04-27T03:45:46;101432.09;;;5.00;80.16
73101;BME280;61288;53.446;-2.266;2023-04-27T03:48:13;101434.69;;;4.98;80.44
73101;BME280;61288;53.446;-2.266;2023-04-27T03:50:39;101431.28;;;4.95;80.91
73101;BME280;61288;53.446;-2.266;2023-04-27T03:53:05;101425.28;;;4.94;80.68
73101;BME280;61288;53.446;-2.266;2023-04-27T03:55:38;101426.13;;;4.93;80.40
73101;BME280;61288;53.446;-2.266;2023-04-27T03:58:04;101429.56;;;4.92;81.03
73101;BME280;61288;53.446;-2.266;2023-04-27T04:00:34;101426.16;;;4.90;81.49
73101;BME280;61288;53.446;-2.266;2023-04-27T04:03:01;101417.63;;;4.89;81.09
73101;BME280;61288;53.446;-2.266;2023-04-27T04:05:26;101417.59;;;4.88;81.39
73101;BME280;61288;53.446;-2.266;2023-04-27T04:07:52;101413.34;;;4.84;81.74
73101;BME280;61288;53.446;-2.266;2023-04-27T04:10:17;101412.53;;;4.79;82.81
73101;BME280;61288;53.446;-2.266;2023-04-27T04:12:43;101416.84;;;4.73;82.88
73101;BME280;61288;53.446;-2.266;2023-04-27T04:15:08;101418.56;;;4.68;83.05
73101;BME280;61288;53.446;-2.266;2023-04-27T04:17:34;101427.13;;;4.67;83.22
73101;BME280;61288;53.446;-2.266;2023-04-27T04:20:00;101428.00;;;4.65;83.63
73101;BME280;61288;53.446;-2.266;2023-04-27T04:22:26;101420.31;;;4.66;82.72
73101;BME280;61288;53.446;-2.266;2023-04-27T04:24:51;101422.88;;;4.66;82.56
73101;BME280;61288;53.446;-2.266;2023-04-27T04:27:18;101420.28;;;4.63;83.75
73101;BME280;61288;53.446;-2.266;2023-04-27T04:29:43;101419.47;;;4.59;83.95
73101;BME280;61288;53.446;-2.266;2023-04-27T04:34:37;101416.03;;;4.59;83.62
73101;BME280;61288;53.446;-2.266;2023-04-27T04:37:03;101412.63;;;4.58;83.38
73101;BME280;61288;53.446;-2.266;2023-04-27T04:39:32;101416.88;;;4.61;83.05
73101;BME280;61288;53.446;-2.266;2023-04-27T04:41:58;101410.88;;;4.63;82.29
73101;BME280;61288;53.446;-2.266;2023-04-27T04:44:24;101416.03;;;4.65;82.59
73101;BME280;61288;53.446;-2.266;2023-04-27T04:46:51;101419.41;;;4.69;82.33
73101;BME280;61288;53.446;-2.266;2023-04-27T04:49:16;101417.69;;;4.74;82.72
73101;BME280;61288;53.446;-2.266;2023-04-27T04:51:43;101413.41;;;4.77;82.50
73101;BME280;61288;53.446;-2.266;2023-04-27T04:54:10;101418.50;;;4.79;83.38
73101;BME280;61288;53.446;-2.266;2023-04-27T04:56:36;101425.38;;;4.77;83.65
73101;BME280;61288;53.446;-2.266;2023-04-27T04:59:02;101421.09;;;4.76;84.17
73101;BME280;61288;53.446;-2.266;2023-04-27T05:01:28;101418.50;;;4.79;83.13
73101;BME280;61288;53.446;-2.266;2023-04-27T05:03:54;101427.06;;;4.84;82.54
73101;BME280;61288;53.446;-2.266;2023-04-27T05:06:20;101419.31;;;4.89;82.85
73101;BME280;61288;53.446;-2.266;2023-04-27T05:08:46;101422.72;;;4.91;84.00
73101;BME280;61288;53.446;-2.266;2023-04-27T05:11:13;101427.84;;;4.96;83.42
73101;BME280;61288;53.446;-2.266;2023-04-27T05:13:38;101426.97;;;5.00;83.09
73101;BME280;61288;53.446;-2.266;2023-04-27T05:16:05;101429.53;;;5.04;83.02
73101;BME280;61288;53.446;-2.266;2023-04-27T05:18:31;101426.03;;;5.10;82.15
73101;BME280;61288;53.446;-2.266;2023-04-27T05:20:56;101414.06;;;5.15;81.67
73101;BME280;61288;53.446;-2.266;2023-04-27T05:23:22;101410.56;;;5.23;81.34
73101;BME280;61288;53.446;-2.266;2023-04-27T05:25:47;101416.53;;;5.28;80.87
73101;BME280;61288;53.446;-2.266;2023-04-27T05:28:13;101409.63;;;5.33;80.44
73101;BME280;61288;53.446;-2.266;2023-04-27T05:30:43;101407.03;;;5.38;79.92
73101;BME280;61288;53.446;-2.266;2023-04-27T05:33:09;101400.97;;;5.43;79.43
73101;BME280;61288;53.446;-2.266;2023-04-27T05:35:35;101399.22;;;5.50;79.07
73101;BME280;61288;53.446;-2.266;2023-04-27T05:38:00;101394.03;;;5.58;78.47
73101;BME280;61288;53.446;-2.266;2023-04-27T05:40:26;101396.53;;;5.64;78.13
73101;BME280;61288;53.446;-2.266;2023-04-27T05:42:52;101389.59;;;5.72;78.02
73101;BME280;61288;53.446;-2.266;2023-04-27T05:45:18;101397.25;;;5.80;77.67
73101;BME280;61288;53.446;-2.266;2023-04-27T05:47:44;101391.19;;;5.87;77.97
73101;BME280;61288;53.446;-2.266;2023-04-27T05:50:11;101399.66;;;5.97;77.72
73101;BME280;61288;53.446;-2.266;2023-04-27T05:52:36;101404.78;;;6.03;78.28
73101;BME280;61288;53.446;-2.266;2023-04-27T05:55:03;101395.28;;;6.10;77.66
73101;BME280;61288;53.446;-2.266;2023-04-27T05:57:29;101394.34;;;6.17;76.72
73101;BME280;61288;53.446;-2.266;2023-04-27T05:59:57;101388.28;;;6.23;76.75
73101;BME280;61288;53.446;-2.266;2023-04-27T06:02:22;101378.78;;;6.30;76.71
73101;BME280;61288;53.446;-2.266;2023-04-27T06:04:48;101380.44;;;6.34;76.37
73101;BME280;61288;53.446;-2.266;2023-04-27T06:07:15;101382.06;;;6.40;76.17
73101;BME280;61288;53.446;-2.266;2023-04-27T06:09:41;101385.47;;;6.43;75.76
73101;BME280;61288;53.446;-2.266;2023-04-27T06:12:08;101378.53;;;6.48;75.38
73101;BME280;61288;53.446;-2.266;2023-04-27T06:14:35;101375.91;;;6.53;74.92
73101;BME280;61288;53.446;-2.266;2023-04-27T06:17:04;101380.16;;;6.57;75.08
73101;BME280;61288;53.446;-2.266;2023-04-27T06:19:30;101384.38;;;6.61;74.64
73101;BME280;61288;53.446;-2.266;2023-04-27T06:21:56;101390.31;;;6.68;74.13
73101;BME280;61288;53.446;-2.266;2023-04-27T06:24:22;101385.09;;;6.73;73.95
73101;BME280;61288;53.446;-2.266;2023-04-27T06:26:50;101383.28;;;6.81;73.64
73101;BME280;61288;53.446;-2.266;2023-04-27T06:29:16;101394.31;;;6.88;73.83
73101;BME280;61288;53.446;-2.266;2023-04-27T06:31:45;101387.38;;;6.96;73.63
73101;BME280;61288;53.446;-2.266;2023-04-27T06:34:11;101383.81;;;7.03;73.27
73101;BME280;61288;53.446;-2.266;2023-04-27T06:36:36;101388.91;;;7.06;72.21
73101;BME280;61288;53.446;-2.266;2023-04-27T06:39:02;101382.81;;;7.12;73.41
73101;BME280;61288;53.446;-2.266;2023-04-27T06:41:30;101385.31;;;7.17;72.07
73101;BME280;61288;53.446;-2.266;2023-04-27T06:43:57;101387.78;;;7.25;72.67
73101;BME280;61288;53.446;-2.266;2023-04-27T06:46:23;101380.88;;;7.27;72.13
73101;BME280;61288;53.446;-2.266;2023-04-27T06:48:48;101383.34;;;7.34;72.59
73101;BME280;61288;53.446;-2.266;2023-04-27T06:51:14;101385.00;;;7.39;72.49
73101;BME280;61288;53.446;-2.266;2023-04-27T06:53:40;101383.13;;;7.47;72.03
73101;BME280;61288;53.446;-2.266;2023-04-27T06:56:10;101375.34;;;7.50;71.69
73101;BME280;61288;53.446;-2.266;2023-04-27T06:58:36;101376.09;;;7.57;70.79
73101;BME280;61288;53.446;-2.266;2023-04-27T07:01:03;101374.22;;;7.65;70.07
73101;BME280;61288;53.446;-2.266;2023-04-27T07:03:29;101372.34;;;7.73;70.19
73101;BME280;61288;53.446;-2.266;2023-04-27T07:05:55;101365.28;;;7.85;69.93
73101;BME280;61288;53.446;-2.266;2023-04-27T07:08:23;101365.94;;;7.94;69.03
73101;BME280;61288;53.446;-2.266;2023-04-27T07:10:48;101361.41;;;8.09;69.85
73101;BME280;61288;53.446;-2.266;2023-04-27T07:13:14;101361.13;;;8.21;69.53
73101;BME280;61288;53.446;-2.266;2023-04-27T07:15:40;101350.66;;;8.29;68.83
73101;BME280;61288;53.446;-2.266;2023-04-27T07:18:06;101360.03;;;8.35;68.91
73101;BME280;61288;53.446;-2.266;2023-04-27T07:20:31;101360.78;;;8.40;68.20
73101;BME280;61288;53.446;-2.266;2023-04-27T07:22:57;101361.75;;;8.34;67.88
73101;BME280;61288;53.446;-2.266;2023-04-27T07:25:22;101368.66;;;8.34;67.50
73101;BME280;61288;53.446;-2.266;2023-04-27T07:27:48;101377.25;;;8.34;67.73
73101;BME280;61288;53.446;-2.266;2023-04-27T07:30:13;101378.22;;;8.29;67.05
73101;BME280;61288;53.446;-2.266;2023-04-27T07:32:41;101387.75;;;8.25;67.42
73101;BME280;61288;53.446;-2.266;2023-04-27T07:35:08;101382.66;;;8.22;67.02
73101;BME280;61288;53.446;-2.266;2023-04-27T07:37:36;101382.59;;;8.25;68.05
73101;BME280;61288;53.446;-2.266;2023-04-27T07:40:03;101383.28;;;8.33;68.26
73101;BME280;61288;53.446;-2.266;2023-04-27T07:42:43;101381.31;;;8.45;67.21
73101;BME280;61288;53.446;-2.266;2023-04-27T07:45:11;101381.13;;;8.57;67.51
73101;BME280;61288;53.446;-2.266;2023-04-27T07:47:37;101381.84;;;8.64;66.62
73101;BME280;61288;53.446;-2.266;2023-04-27T07:50:05;101385.91;;;8.74;66.61
73101;BME280;61288;53.446;-2.266;2023-04-27T07:52:31;101375.38;;;8.84;66.04
73101;BME280;61288;53.446;-2.266;2023-04-27T07:54:57;101380.31;;;8.94;66.44
73101;BME280;61288;53.446;-2.266;2023-04-27T07:57:22;101370.38;;;9.14;65.76
73101;BME280;61288;53.446;-2.266;2023-04-27T07:59:48;101374.41;;;9.25;65.20
73101;BME280;61288;53.446;-2.266;2023-04-27T08:02:13;101376.63;;;9.41;65.17
73101;BME280;61288;53.446;-2.266;2023-04-27T08:04:39;101371.06;;;9.57;64.57
73101;BME280;61288;53.446;-2.266;2023-04-27T08:07:05;101356.84;;;9.73;65.03
73101;BME280;61288;53.446;-2.266;2023-04-27T08:09:31;101353.66;;;9.96;64.72
73101;BME280;61288;53.446;-2.266;2023-04-27T08:11:57;101353.97;;;10.16;63.96
73101;BME280;61288;53.446;-2.266;2023-04-27T08:14:22;101345.97;;;10.23;62.51
73101;BME280;61288;53.446;-2.266;2023-04-27T08:16:48;101339.09;;;10.54;62.38
73101;BME280;61288;53.446;-2.266;2023-04-27T08:19:16;101336.56;;;10.81;63.02
73101;BME280;61288;53.446;-2.266;2023-04-27T08:21:41;101335.84;;;11.03;61.44
73101;BME280;61288;53.446;-2.266;2023-04-27T08:24:06;101346.03;;;11.09;58.61
73101;BME280;61288;53.446;-2.266;2023-04-27T08:26:33;101339.94;;;11.10;60.25
73101;BME280;61288;53.446;-2.266;2023-04-27T08:29:00;101336.06;;;11.23;59.12
73101;BME280;61288;53.446;-2.266;2023-04-27T08:31:26;101327.47;;;11.21;58.80
73101;BME280;61288;53.446;-2.266;2023-04-27T08:33:52;101312.28;;;11.36;58.98
73101;BME280;61288;53.446;-2.266;2023-04-27T08:36:20;101309.44;;;11.44;58.44
73101;BME280;61288;53.446;-2.266;2023-04-27T08:38:52;101300.97;;;11.38;57.70
73101;BME280;61288;53.446;-2.266;2023-04-27T08:41:21;101298.84;;;11.50;57.99
73101;BME280;61288;53.446;-2.266;2023-04-27T08:43:48;101295.34;;;11.51;57.53
73101;BME280;61288;53.446;-2.266;2023-04-27T08:46:22;101300.22;;;11.60;57.93
73101;BME280;61288;53.446;-2.266;2023-04-27T08:48:49;101292.22;;;11.66;57.40
73101;BME280;61288;53.446;-2.266;2023-04-27T08:51:15;101281.66;;;11.71;56.76
73101;BME280;61288;53.446;-2.266;2023-04-27T08:53:49;101287.53;;;11.76;56.46
73101;BME280;61288;53.446;-2.266;2023-04-27T08:56:16;101289.91;;;11.82;56.34
73101;BME280;61288;53.446;-2.266;2023-04-27T08:58:42;101285.66;;;11.80;56.84
73101;BME280;61288;53.446;-2.266;2023-04-27T09:01:08;101287.81;;;11.68;56.50
73101;BME280;61288;53.446;-2.266;2023-04-27T09:03:38;101284.72;;;11.82;57.40
73101;BME280;61288;53.446;-2.266;2023-04-27T09:06:04;101280.13;;;11.89;57.22
73101;BME280;61288;53.446;-2.266;2023-04-27T09:08:47;101278.75;;;12.04;57.02
73101;BME280;61288;53.446;-2.266;2023-04-27T09:11:14;101280.16;;;12.13;56.65
73101;BME280;61288;53.446;-2.266;2023-04-27T09:13:42;101288.81;;;12.13;56.46
73101;BME280;61288;53.446;-2.266;2023-04-27T09:16:13;101286.16;;;12.15;56.60
73101;BME280;61288;53.446;-2.266;2023-04-27T09:18:42;101279.88;;;12.21;58.04
73101;BME280;61288;53.446;-2.266;2023-04-27T09:21:08;101291.31;;;12.17;56.83
73101;BME280;61288;53.446;-2.266;2023-04-27T09:23:36;101285.97;;;12.20;57.13
73101;BME280;61288;53.446;-2.266;2023-04-27T09:26:04;101279.41;;;12.09;56.46
73101;BME280;61288;53.446;-2.266;2023-04-27T09:28:33;101283.91;;;12.06;56.25
73101;BME280;61288;53.446;-2.266;2023-04-27T09:31:01;101283.16;;;12.02;56.55
73101;BME280;61288;53.446;-2.266;2023-04-27T09:33:34;101279.31;;;11.89;56.00
73101;BME280;61288;53.446;-2.266;2023-04-27T09:36:04;101269.25;;;11.79;56.99
73101;BME280;61288;53.446;-2.266;2023-04-27T09:38:30;101280.75;;;11.72;57.35
73101;BME280;61288;53.446;-2.266;2023-04-27T09:40:58;101276.56;;;11.68;58.11
73101;BME280;61288;53.446;-2.266;2023-04-27T09:43:25;101274.72;;;11.72;57.07
73101;BME280;61288;53.446;-2.266;2023-04-27T09:45:53;101271.06;;;11.77;57.17
73101;BME280;61288;53.446;-2.266;2023-04-27T09:48:20;101270.22;;;11.77;57.73
73101;BME280;61288;53.446;-2.266;2023-04-27T09:50:48;101274.84;;;11.68;57.25
73101;BME280;61288;53.446;-2.266;2023-04-27T09:53:16;101271.50;;;11.65;56.29
73101;BME280;61288;53.446;-2.266;2023-04-27T09:58:52;101261.81;;;11.45;56.06
73101;BME280;61288;53.446;-2.266;2023-04-27T10:01:26;101262.69;;;11.45;55.78
73101;BME280;61288;53.446;-2.266;2023-04-27T10:04:05;101258.66;;;11.36;55.77
73101;BME280;61288;53.446;-2.266;2023-04-27T10:08:59;101268.19;;;11.36;56.44
73101;BME280;61288;53.446;-2.266;2023-04-27T10:11:41;101259.72;;;11.31;55.58
73101;BME280;61288;53.446;-2.266;2023-04-27T10:14:09;101264.09;;;11.29;55.68
73101;BME280;61288;53.446;-2.266;2023-04-27T10:16:49;101269.66;;;11.18;56.17
73101;BME280;61288;53.446;-2.266;2023-04-27T10:19:16;101268.72;;;11.20;56.66
73101;BME280;61288;53.446;-2.266;2023-04-27T10:21:57;101260.94;;;11.20;57.12
73101;BME280;61288;53.446;-2.266;2023-04-27T10:24:37;101253.16;;;11.20;57.34
73101;BME280;61288;53.446;-2.266;2023-04-27T10:27:05;101245.84;;;11.32;58.71
73101;BME280;61288;53.446;-2.266;2023-04-27T10:29:38;101246.63;;;11.34;57.11
73101;BME280;61288;53.446;-2.266;2023-04-27T10:32:27;101234.78;;;11.26;56.84
73101;BME280;61288;53.446;-2.266;2023-04-27T10:35:04;101235.53;;;11.30;56.62
73101;BME280;61288;53.446;-2.266;2023-04-27T10:37:38;101232.16;;;11.28;58.16
73101;BME280;61288;53.446;-2.266;2023-04-27T10:40:07;101234.53;;;11.34;58.68
73101;BME280;61288;53.446;-2.266;2023-04-27T10:42:36;101237.22;;;11.31;56.82
73101;BME280;61288;53.446;-2.266;2023-04-27T10:45:01;101232.88;;;11.32;57.56
73101;BME280;61288;53.446;-2.266;2023-04-27T10:47:42;101234.88;;;11.23;57.37
73101;BME280;61288;53.446;-2.266;2023-04-27T10:50:09;101230.94;;;11.13;57.33
73101;BME280;61288;53.446;-2.266;2023-04-27T10:52:44;101225.63;;;11.16;57.61
73101;BME280;61288;53.446;-2.266;2023-04-27T10:55:18;101229.06;;;11.17;58.23
73101;BME280;61288;53.446;-2.266;2023-04-27T10:57:51;101226.47;;;11.17;56.98
73101;BME280;61288;53.446;-2.266;2023-04-27T11:00:28;101225.44;;;11.21;57.61
73101;BME280;61288;53.446;-2.266;2023-04-27T11:02:56;101217.47;;;11.27;58.04
73101;BME280;61288;53.446;-2.266;2023-04-27T11:05:24;101218.34;;;11.26;58.01
73101;BME280;61288;53.446;-2.266;2023-04-27T11:08:03;101201.91;;;11.27;57.22
73101;BME280;61288;53.446;-2.266;2023-04-27T11:10:30;101207.16;;;11.25;56.48
73101;BME280;61288;53.446;-2.266;2023-04-27T11:12:55;101202.72;;;11.29;56.44
73101;BME280;61288;53.446;-2.266;2023-04-27T11:15:21;101198.13;;;11.36;56.54
73101;BME280;61288;53.446;-2.266;2023-04-27T11:17:46;101193.69;;;11.39;57.18
73101;BME280;61288;53.446;-2.266;2023-04-27T11:20:12;101191.38;;;11.55;56.65
73101;BME280;61288;53.446;-2.266;2023-04-27T11:22:45;101177.84;;;11.47;55.32
73101;BME280;61288;53.446;-2.266;2023-04-27T11:25:11;101179.53;;;11.48;56.79
73101;BME280;61288;53.446;-2.266;2023-04-27T11:27:39;101170.44;;;11.36;55.53
73101;BME280;61288;53.446;-2.266;2023-04-27T11:30:05;101176.75;;;11.29;55.72
73101;BME280;61288;53.446;-2.266;2023-04-27T11:32:34;101178.34;;;11.33;55.91
73101;BME280;61288;53.446;-2.266;2023-04-27T11:35:00;101176.81;;;11.27;56.91
73101;BME280;61288;53.446;-2.266;2023-04-27T11:37:26;101171.16;;;11.16;55.88
73101;BME280;61288;53.446;-2.266;2023-04-27T11:39:52;101163.28;;;11.19;56.53
73101;BME280;61288;53.446;-2.266;2023-04-27T11:42:26;101174.31;;;11.24;55.86
73101;BME280;61288;53.446;-2.266;2023-04-27T11:44:56;101166.66;;;11.21;55.48
73101;BME280;61288;53.446;-2.266;2023-04-27T11:47:23;101165.00;;;11.19;55.66
73101;BME280;61288;53.446;-2.266;2023-04-27T11:50:00;101160.50;;;11.24;56.58
73101;BME280;61288;53.446;-2.266;2023-04-27T11:52:34;101159.50;;;11.28;56.50
73101;BME280;61288;53.446;-2.266;2023-04-27T11:55:01;101151.09;;;11.21;55.33
73101;BME280;61288;53.446;-2.266;2023-04-27T11:57:33;101138.28;;;11.17;56.22
73101;BME280;61288;53.446;-2.266;2023-04-27T12:00:01;101137.44;;;11.16;57.07
73101;BME280;61288;53.446;-2.266;2023-04-27T12:02:36;101131.59;;;11.11;55.92
73101;BME280;61288;53.446;-2.266;2023-04-27T12:05:02;101127.00;;;11.18;56.88
73101;BME280;61288;53.446;-2.266;2023-04-27T12:07:29;101136.34;;;11.22;57.47
73101;BME280;61288;53.446;-2.266;2023-04-27T12:09:55;101120.13;;;11.17;56.53
73101;BME280;61288;53.446;-2.266;2023-04-27T12:12:20;101118.44;;;11.16;56.32
73101;BME280;61288;53.446;-2.266;2023-04-27T12:14:50;101120.38;;;11.09;56.38
73101;BME280;61288;53.446;-2.266;2023-04-27T12:17:16;101122.03;;;11.11;56.87
73101;BME280;61288;53.446;-2.266;2023-04-27T12:19:42;101117.63;;;11.13;55.97
73101;BME280;61288;53.446;-2.266;2023-04-27T12:22:07;101118.53;;;11.12;55.75
73101;BME280;61288;53.446;-2.266;2023-04-27T12:24:33;101118.03;;;11.03;55.53
73101;BME280;61288;53.446;-2.266;2023-04-27T12:26:59;101125.19;;;10.96;56.04
73101;BME280;61288;53.446;-2.266;2023-04-27T12:29:25;101111.53;;;10.91;56.25
73101;BME280;61288;53.446;-2.266;2023-04-27T12:31:51;101106.19;;;10.95;56.40
73101;BME280;61288;53.446;-2.266;2023-04-27T12:34:17;101101.63;;;11.02;56.78
73101;BME280;61288;53.446;-2.266;2023-04-27T12:36:43;101112.59;;;11.09;56.88
73101;BME280;61288;53.446;-2.266;2023-04-27T12:39:16;101099.81;;;11.04;56.61
73101;BME280;61288;53.446;-2.266;2023-04-27T12:41:46;101106.69;;;11.05;56.86
73101;BME280;61288;53.446;-2.266;2023-04-27T12:44:12;101110.00;;;11.09;56.39
73101;BME280;61288;53.446;-2.266;2023-04-27T12:46:39;101102.69;;;10.96;57.32
73101;BME280;61288;53.446;-2.266;2023-04-27T12:49:05;101110.47;;;10.96;57.14
73101;BME280;61288;53.446;-2.266;2023-04-27T12:51:31;101109.78;;;10.91;56.99
73101;BME280;61288;53.446;-2.266;2023-04-27T12:53:58;101110.16;;;10.80;57.59